Terminal Aerodrome Forecast
Issued by NWS Sterling, VA

Current Version | Previous Version | Graphics & Text | Print | Product List | Glossary On
Versions: 1 2 3 4 5 6 7 8 9 10 11 12 13 14 15 16 17 18 19 20 21 22 23 24
000
FTUS41 KLWX 031720
TAFIAD
TAF
KIAD 031720Z 0318/0424 31013G20KT P6SM SCT045 BKN250
     FM032300 31009KT P6SM FEW045 SCT250
     FM040500 30005KT P6SM SCT040 BKN250
     FM042100 20004KT P6SM SCT045 OVC250=

USA.gov is the U.S. government's official web portal to all federal, state and local government web resources and services.